Mailinglist Archive: opensuse-de (1051 mails)

< Previous Next >
Re: KMail, leere Nachricht (Abs. unbekannt/Betreff unbekannt) einmal anders
  • From: Hans Muecke <suse-linux-ml-01@xxxxxxxxxxxxxxx>
  • Date: Thu, 21 Aug 2008 15:39:16 -0500
  • Message-id: <200808211539.16437.suse-linux-ml-01@xxxxxxxxxxxxxxx>
Am Donnerstag, 21. August 2008 14:40:27 schrieb Matthias Müller:

Hallo Matthias,

Ich habe bevor ich KMail gestarted habe die zweite mail per Webinterface
auf einen anderen Rechner heruntergeladen. Dort läßt sie sich problemlos
öffnen und - ich fasse es nicht!!! - greife ich vom Mailrechner per NFS
auf die dort gespeicherte Email, dann kann ich sie ebenfalls öffnen.

klasse. Stutz Komma Fragezeichen? Hää? Versteh' ich auch nicht.

Ebend.

Was kann denn da die Ursache sein? Spamassassin-Regel vielleicht?

kA, ich verwende Spamssasin nicht, bin von Spam weitestgehend verschont.
Vielleicht blockt mein Provider jede Menge.

Das mit der Zeit war nur ein Schuß ins Blaue

Na ich denke, das war nicht ganz falsch. Die Frage ist halt warum die Mails
mit dieser falschen Zeit überhaupt "produziert" werden. Sie werden ja mit der
richtigen Zeit ausgeliefert, erst das Öffnen führt ja zum Problem.

Nur aus Neugierde:
Talk to you later ... Hans (15 to go)

^^^^^^^^ 15 zu gehen? Wohin? :-)

15 Tage bis ... Lake Old Hickory near Gallatin/Tennessee. Freunde und Familie
besuchen ... deswegen laufen meine Rechner auch in der dortigen Zeitzone.
Home is where the heart is ... sozusagen ...

2008/08/21 05:50
EDDS 210550Z 13002KT CAVOK 13/11 Q1021 NOSIG

Was bedeutet das?

Mann ... gottseidank war heute morgen gutes Wetter, ich hätte sonst
nachschlagen müßen.

Das ist ein sog. METAR, welcher die Flugwetterlage beschreibt.

Im Wesentlichen steht da, daß heute Morgen um 5:50 UTC der Flughafen EDDS
(Stuttgart) gemeldet hat, daß der Wind aus 130 Grad mit 2 Knoten geblasen
hat. CAVOK gibt an, daß Wolkenuntergrenze und Sichtweite "OK" sind
(Sichtweite > 10km, keine Wolken unterhalb 5000ft etc), Temperatur war 13C
(Taupunkt 11C), Luftdruck bei 1021hPa und es wird keine signifikante
Wetteränderung erwartet (NOSIG).

Es gibt auch weitaus kryptischere" METARs ... dann ist in der Regel
Weltuntergang angesagt ... :-)

--
Talk to you later ... Hans (15 to go)

2008/08/21 19:50
EDDS 211950Z 32002KT CAVOK 17/10 Q1020 NOSIG

--
Um die Liste abzubestellen, schicken Sie eine Mail an:
opensuse-de+unsubscribe@xxxxxxxxxxxx
Um eine Liste aller verfuegbaren Kommandos zu bekommen, schicken
Sie eine Mail an: opensuse-de+help@xxxxxxxxxxxx

< Previous Next >